ASY628 YAMB-YAMB
Flight info
| Callsign | ASY628 |
|---|---|
| Flight time | N/A |
| Altitude | 34000 |
| Route | N0438F340 TATEN DCT AKMIR DCT COM DCT IRSOM DCT URBEN DCT PADBU DCT 51S140E 59S130E 64S120E DCT YWKS DCT 60S130E 50S140E DCT URBEN DCT VIMAP Y327 MAKRL/N0423F380 J163 CB W137 AVBEG W184 MUDGI/N0427F370 H66 TW/N0338F190 W411 DULIN DCT |
| Aircraft | C17/H-SDFGHIJ5KM1RTUWXYZ/LB101 |
Departure
| Time | 2026-05-05 14:24 |
|---|---|
| Airport | RAAF Base Amberley (YAMB) |
Arrival
| Time | N/A |
|---|---|
| Airport | RAAF Base Amberley (YAMB) |
| Time | Latitude | Longitude | Altitude | Speed | Heading |
|---|---|---|---|---|---|
| 2026-05-05 14:17 | -27.62188 | 152.70104 | 92 ft | 0 kts | 158° |
| 2026-05-05 14:21 | -27.62200 | 152.70111 | 95 ft | 6 kts | 148° |
| 2026-05-05 14:21 | -27.62218 | 152.70145 | 95 ft | 3 kts | 103° |
| 2026-05-05 14:22 | -27.62211 | 152.70200 | 94 ft | 12 kts | 72° |
| 2026-05-05 14:22 | -27.62191 | 152.70294 | 94 ft | 9 kts | 95° |
| 2026-05-05 14:22 | -27.62208 | 152.70387 | 99 ft | 16 kts | 91° |
| 2026-05-05 14:22 | -27.62193 | 152.70495 | 100 ft | 11 kts | 87° |
| 2026-05-05 14:23 | -27.62222 | 152.70543 | 98 ft | 6 kts | 145° |
| 2026-05-05 14:23 | -27.62237 | 152.70552 | 101 ft | 0 kts | 156° |
| 2026-05-05 14:23 | -27.62277 | 152.70572 | 98 ft | 31 kts | 156° |
| 2026-05-05 14:24 | -27.62753 | 152.70777 | 100 ft | 114 kts | 158° |
| 2026-05-05 14:24 | -27.63708 | 152.71199 | 99 ft | 180 kts | 158° |
| 2026-05-05 14:24 | -27.64215 | 152.71430 | 183 ft | 194 kts | 160° |
| 2026-05-05 14:24 | -27.65357 | 152.71978 | 1619 ft | 163 kts | 157° |
| 2026-05-05 14:25 | -27.66499 | 152.72512 | 2477 ft | 193 kts | 155° |
| 2026-05-05 14:25 | -27.67800 | 152.73114 | 3228 ft | 205 kts | 156° |
| 2026-05-05 14:25 | -27.69158 | 152.73744 | 4158 ft | 218 kts | 156° |
| 2026-05-05 14:25 | -27.70580 | 152.74400 | 5365 ft | 222 kts | 157° |
| 2026-05-05 14:26 | -27.71984 | 152.75045 | 6783 ft | 212 kts | 157° |
| 2026-05-05 14:26 | -27.73477 | 152.75614 | 7261 ft | 257 kts | 168° |
| 2026-05-05 14:26 | -27.75410 | 152.75564 | 6492 ft | 285 kts | 192° |
| 2026-05-05 14:26 | -27.77175 | 152.75083 | 7190 ft | 244 kts | 191° |
| 2026-05-05 14:27 | -27.78885 | 152.74788 | 8187 ft | 254 kts | 185° |
| 2026-05-05 14:27 | -27.80672 | 152.74615 | 9211 ft | 261 kts | 184° |
| 2026-05-05 14:27 | -27.82520 | 152.74415 | 10250 ft | 273 kts | 186° |
| 2026-05-05 14:27 | -27.84430 | 152.74182 | 11226 ft | 278 kts | 187° |
| 2026-05-05 14:28 | -27.86372 | 152.73947 | 12215 ft | 284 kts | 187° |
| 2026-05-05 14:28 | -27.88372 | 152.73708 | 13237 ft | 293 kts | 188° |
| 2026-05-05 14:28 | -27.90387 | 152.73470 | 14233 ft | 297 kts | 189° |
| 2026-05-05 14:28 | -27.92464 | 152.73224 | 15168 ft | 304 kts | 190° |
| 2026-05-05 14:29 | -27.94593 | 152.72967 | 16130 ft | 311 kts | 191° |
| 2026-05-05 14:29 | -27.96765 | 152.72709 | 17129 ft | 316 kts | 192° |
| 2026-05-05 14:29 | -27.98970 | 152.72449 | 18144 ft | 317 kts | 193° |
| 2026-05-05 14:29 | -28.01096 | 152.72206 | 19024 ft | 299 kts | 194° |
| 2026-05-05 14:30 | -28.03178 | 152.71949 | 19694 ft | 308 kts | 195° |
| 2026-05-05 14:30 | -28.05359 | 152.71673 | 20234 ft | 323 kts | 194° |
| 2026-05-05 14:30 | -28.07643 | 152.71405 | 20853 ft | 337 kts | 194° |
| 2026-05-05 14:30 | -28.10013 | 152.71123 | 21346 ft | 346 kts | 195° |
| 2026-05-05 14:31 | -28.12312 | 152.70421 | 21837 ft | 341 kts | 211° |
| 2026-05-05 14:31 | -28.14528 | 152.69386 | 22356 ft | 347 kts | 211° |
| 2026-05-05 14:31 | -28.16768 | 152.68362 | 22850 ft | 347 kts | 210° |
| 2026-05-05 14:31 | -28.19025 | 152.67346 | 23342 ft | 350 kts | 211° |
| 2026-05-05 14:32 | -28.21297 | 152.66314 | 23815 ft | 353 kts | 211° |
| 2026-05-05 14:32 | -28.23556 | 152.65281 | 24220 ft | 356 kts | 211° |
| 2026-05-05 14:32 | -28.25864 | 152.64230 | 24643 ft | 357 kts | 211° |
| 2026-05-05 14:32 | -28.28182 | 152.63175 | 25083 ft | 360 kts | 212° |
| 2026-05-05 14:33 | -28.30515 | 152.62111 | 25502 ft | 363 kts | 212° |
| 2026-05-05 14:33 | -28.32871 | 152.61036 | 25958 ft | 367 kts | 212° |
| 2026-05-05 14:33 | -28.35263 | 152.59941 | 26410 ft | 374 kts | 212° |
| 2026-05-05 14:33 | -28.37685 | 152.58839 | 26871 ft | 375 kts | 212° |
| 2026-05-05 14:34 | -28.40108 | 152.57737 | 27326 ft | 376 kts | 212° |
| 2026-05-05 14:34 | -28.42549 | 152.56617 | 27794 ft | 380 kts | 212° |
| 2026-05-05 14:34 | -28.45016 | 152.55487 | 28275 ft | 385 kts | 212° |
| 2026-05-05 14:34 | -28.47484 | 152.54359 | 28763 ft | 389 kts | 213° |
| 2026-05-05 14:35 | -28.50067 | 152.53246 | 29261 ft | 395 kts | 210° |
| 2026-05-05 14:35 | -28.52673 | 152.52219 | 29785 ft | 398 kts | 211° |
| 2026-05-05 14:35 | -28.55290 | 152.51143 | 30301 ft | 403 kts | 211° |
| 2026-05-05 14:35 | -28.57917 | 152.50073 | 30696 ft | 408 kts | 210° |
| 2026-05-05 14:36 | -28.60601 | 152.49007 | 31043 ft | 408 kts | 210° |
| 2026-05-05 14:36 | -28.63273 | 152.47943 | 31389 ft | 406 kts | 210° |
| 2026-05-05 14:36 | -28.65949 | 152.46862 | 31741 ft | 409 kts | 210° |
| 2026-05-05 14:36 | -28.68642 | 152.45769 | 32118 ft | 414 kts | 211° |
| 2026-05-05 14:37 | -28.71372 | 152.44664 | 32513 ft | 418 kts | 210° |
| 2026-05-05 14:37 | -28.74117 | 152.43566 | 32892 ft | 418 kts | 210° |
| 2026-05-05 14:37 | -28.76858 | 152.42469 | 33279 ft | 417 kts | 211° |
| 2026-05-05 14:37 | -28.79601 | 152.41354 | 33698 ft | 422 kts | 210° |
| 2026-05-05 14:38 | -28.82383 | 152.40224 | 34102 ft | 424 kts | 210° |
| 2026-05-05 14:38 | -28.85167 | 152.39107 | 34449 ft | 424 kts | 210° |
| 2026-05-05 14:38 | -28.87959 | 152.37980 | 34799 ft | 428 kts | 210° |
| 2026-05-05 14:38 | -28.90778 | 152.36833 | 35158 ft | 432 kts | 210° |
| 2026-05-05 14:39 | -28.93621 | 152.35682 | 35521 ft | 434 kts | 210° |
| 2026-05-05 14:39 | -28.96483 | 152.34530 | 35890 ft | 435 kts | 211° |
| 2026-05-05 14:39 | -28.99342 | 152.33370 | 36248 ft | 438 kts | 211° |
| 2026-05-05 14:39 | -29.02231 | 152.32191 | 36617 ft | 443 kts | 211° |
| 2026-05-05 14:40 | -29.05112 | 152.31034 | 37001 ft | 434 kts | 211° |
| 2026-05-05 14:40 | -29.07900 | 152.29913 | 37344 ft | 429 kts | 212° |
| 2026-05-05 14:40 | -29.10725 | 152.28747 | 37726 ft | 434 kts | 212° |
| 2026-05-05 14:40 | -29.13590 | 152.27570 | 38143 ft | 440 kts | 212° |
| 2026-05-05 14:41 | -29.16497 | 152.26397 | 38559 ft | 446 kts | 212° |
| 2026-05-05 14:41 | -29.19439 | 152.25208 | 38944 ft | 450 kts | 212° |
| 2026-05-05 14:41 | -29.22401 | 152.24003 | 39289 ft | 452 kts | 212° |
| 2026-05-05 14:41 | -29.25367 | 152.22793 | 39628 ft | 452 kts | 212° |
| 2026-05-05 14:42 | -29.28333 | 152.21583 | 39964 ft | 455 kts | 211° |
| 2026-05-05 14:42 | -29.31337 | 152.20353 | 40034 ft | 459 kts | 211° |
| 2026-05-05 14:42 | -29.34293 | 152.19166 | 40024 ft | 440 kts | 211° |
| 2026-05-05 14:42 | -29.37126 | 152.18023 | 40012 ft | 424 kts | 212° |
| 2026-05-05 14:43 | -29.42646 | 152.15723 | 40061 ft | 428 kts | 212° |
| 2026-05-05 14:43 | -29.45486 | 152.14557 | 40086 ft | 439 kts | 211° |
| 2026-05-05 14:43 | -29.48382 | 152.13390 | 40074 ft | 441 kts | 211° |
| 2026-05-05 14:44 | -29.54110 | 152.11054 | 40061 ft | 432 kts | 211° |
| 2026-05-05 14:44 | -29.59730 | 152.08734 | 40072 ft | 434 kts | 211° |
| 2026-05-05 14:45 | -29.65445 | 152.06396 | 40184 ft | 436 kts | 211° |
| 2026-05-05 14:45 | -29.71167 | 152.04039 | 40175 ft | 437 kts | 211° |
| 2026-05-05 14:46 | -29.76853 | 152.01704 | 40167 ft | 433 kts | 211° |
| 2026-05-05 14:46 | -29.82577 | 151.99329 | 40189 ft | 440 kts | 211° |
| 2026-05-05 14:47 | -29.88330 | 151.96977 | 40176 ft | 435 kts | 211° |
| 2026-05-05 14:47 | -29.93971 | 151.94631 | 40183 ft | 435 kts | 211° |
| 2026-05-05 14:48 | -29.99694 | 151.92266 | 40182 ft | 438 kts | 210° |